Shin Mei Maru — JG5617 — position and weather

sailwx.info

Track history (hours):
 
Tides and Currents Weather Stations Pressure Air Temp Water Temp Dewpoint Dewpoint Depression Visibility Wind Speed Wind Dir Waves Ship Positions

Shin Mei Maru

Last reported at 2016-Jul-22 22:21 UTC. Time now 2016-Jul-27 11:35 UTC.
Position N 36°24' E 141°05'.

Length 160 m; draft 6.9 m.

Type: Cargo ship. MMSI: 431100922.

Date/timePositionNaut miles runAvg speedWind from/ knotsBaromVisibWave heightAir tempDewpointWater temp
2016-Jul-22 22:21N 36°24' E 141°05'1515.2
2016-Jul-22 21:21N 36°09' E 141°02'1515.4
2016-Jul-22 20:23N 35°54' E 141°01'1414.8
2016-Jul-22 19:28N 35°40' E 141°00'1314.6
2016-Jul-22 18:33N 35°29' E 140°52'1715.9
2016-Jul-22 17:29N 35°16' E 140°39'1515.9
2016-Jul-22 16:31N 35°04' E 140°26'1515.3
2016-Jul-22 15:33N 34°56' E 140°11'1615.3
2016-Jul-22 14:31N 34°49' E 139°54'1414.9
2016-Jul-22 13:33N 34°60' E 139°42'1616.1
2016-Jul-22 12:33N 35°16' E 139°46'1312.5
2016-Jul-22 11:33N 35°28' E 139°48'1010.1
2016-Jul-22 10:34N 35°38' E 139°46'0 0.1
2016-Jul-22 09:31N 35°38' E 139°46'0 0.0
2016-Jul-22 08:28N 35°38' E 139°46'0 0.0
2016-Jul-22 07:28N 35°38' E 139°46'0 0.0
2016-Jul-22 04:31N 35°38' E 139°46'0 0.0
2016-Jul-22 03:31N 35°38' E 139°46'0 0.0
2016-Jul-22 02:28N 35°38' E 139°46'0 0.0
2016-Jul-22 01:31N 35°38' E 139°46'0 0.0
2016-Jul-22 00:31N 35°38' E 139°46'0 0.0
2016-Jul-21 23:28N 35°38' E 139°46'6 7.1
2016-Jul-21 22:33N 35°33' E 139°51'1414.0
2016-Jul-21 21:33N 35°20' E 139°44'1312.7
2016-Jul-21 20:33N 35°08' E 139°47'1515.3
2016-Jul-21 19:34N 34°52' E 139°46'1616.4
2016-Jul-21 18:33N 34°50' E 140°06'1615.9
2016-Jul-21 17:33N 35°01' E 140°20'1616.5
2016-Jul-21 16:33N 35°12' E 140°35'1615.9
2016-Jul-21 15:33N 35°26' E 140°45'1615.9
2016-Jul-21 14:33N 35°39' E 140°56'1916.5
2016-Jul-21 13:24N 35°57' E 141°02'  
2016-Jul-18 22:07N 36°47' E 141°07'1116.4
2016-Jul-18 21:26N 36°36' E 141°06'1516.8
2016-Jul-18 20:33N 36°21' E 141°05'1717.3
2016-Jul-18 19:33N 36°04' E 141°03'1717.4
2016-Jul-18 18:33N 35°46' E 141°01'1817.1
2016-Jul-18 17:32N 35°30' E 140°52'1818.8
2016-Jul-18 16:33N 35°16' E 140°38'1818.2
2016-Jul-18 15:33N 35°02' E 140°24'1717.4
2016-Jul-18 14:33N 34°53' E 140°06'1616.0
2016-Jul-18 13:33N 34°52' E 139°46'1717.0
2016-Jul-18 12:33N 35°09' E 139°45'1313.5
2016-Jul-18 11:34N 35°22' E 139°42'1413.6
2016-Jul-18 10:34N 35°32' E 139°53'0 0.0
2016-Jul-18 09:31N 35°32' E 139°53'0 0.1
2016-Jul-18 08:32N 35°32' E 139°53'8 8.4
2016-Jul-18 07:33N 35°38' E 139°46'0 0.4
2016-Jul-18 06:33N 35°38' E 139°46'0 0.0
2016-Jul-18 05:33N 35°38' E 139°46'0 0.0
2016-Jul-18 04:30N 35°38' E 139°46'0 0.0
2016-Jul-18 03:33N 35°38' E 139°46'0 0.0
2016-Jul-18 02:30N 35°38' E 139°46'0 0.0
2016-Jul-18 01:33N 35°38' E 139°46'0 0.0
2016-Jul-18 00:33N 35°38' E 139°46'0 0.0
2016-Jul-17 23:33N 35°38' E 139°46'6 5.6
2016-Jul-17 22:34N 35°34' E 139°50'1312.9
2016-Jul-17 21:33N 35°21' E 139°45'1211.9
2016-Jul-17 20:33N 35°09' E 139°46'1716.5
2016-Jul-17 19:33N 34°53' E 139°45'1615.9
2016-Jul-17 18:33N 34°54' E 140°04'1717.4
2016-Jul-17 17:33N 35°02' E 140°23'1817.3
2016-Jul-17 16:32N 35°16' E 140°37'1717.1
2016-Jul-17 15:33N 35°29' E 140°49'2017.9
2016-Jul-17 14:25N 35°47' E 141°01'1718.9
2016-Jul-17 13:32N 36°04' E 141°03'  
2016-Jul-14 22:13N 36°45' E 141°07'2017.6
2016-Jul-14 21:04N 36°25' E 141°05'917.6
2016-Jul-14 20:32N 36°15' E 141°04'1717.6
2016-Jul-14 19:33N 35°58' E 141°02'1717.3
2016-Jul-14 18:32N 35°41' E 140°57'1818.1
2016-Jul-14 17:33N 35°25' E 140°48'1918.8
2016-Jul-14 16:33N 35°11' E 140°33'1818.4
2016-Jul-14 15:33N 34°58' E 140°17'1818.1
2016-Jul-14 14:33N 34°50' E 139°57'1615.7
2016-Jul-14 13:33N 34°59' E 139°42'1716.7
2016-Jul-14 12:33N 35°16' E 139°46'1211.6
2016-Jul-14 11:33N 35°27' E 139°47'1110.7
2016-Jul-14 10:33N 35°38' E 139°46'0 0.1
2016-Jul-14 09:34N 35°38' E 139°46'0 0.0
2016-Jul-14 08:32N 35°38' E 139°46'0 0.0
2016-Jul-14 07:29N 35°38' E 139°46'0 0.0
2016-Jul-14 06:32N 35°38' E 139°46'0 0.0
2016-Jul-14 05:32N 35°38' E 139°46'0 0.0
2016-Jul-14 04:32N 35°38' E 139°46'0 0.0
2016-Jul-14 03:32N 35°38' E 139°46'0 0.0
2016-Jul-14 02:29N 35°38' E 139°46'0 0.0
2016-Jul-14 01:20N 35°38' E 139°46'0 0.0
2016-Jul-14 00:32N 35°38' E 139°46'0 0.0
2016-Jul-13 23:32N 35°38' E 139°46'2 2.1
2016-Jul-13 22:33N 35°36' E 139°47'1110.6
2016-Jul-13 21:34N 35°26' E 139°48'1111.1
2016-Jul-13 20:33N 35°15' E 139°47'1615.6
2016-Jul-13 19:33N 34°59' E 139°43'1414.1
2016-Jul-13 18:33N 34°51' E 139°56'1413.9
2016-Jul-13 17:33N 34°55' E 140°12'1514.7
2016-Jul-13 16:32N 35°03' E 140°27'1716.4
2016-Jul-13 15:31N 35°16' E 140°40'1616.4
2016-Jul-13 14:33N 35°29' E 140°52'1616.6
2016-Jul-13 13:33N 35°44' E 141°00'1817.3
2016-Jul-13 12:32N 36°02' E 141°03'  
Track history (hours):
 
Tides and Currents Weather Stations Pressure Air Temp Water Temp Dewpoint Dewpoint Depression Visibility Wind Speed Wind Dir Waves Ship Positions

Shin Mei Maru

Last reported at 2016-Jul-22 22:21 UTC. Time now 2016-Jul-27 11:35 UTC.
Position N 36°24' E 141°05'.

Length 160 m; draft 6.9 m.

Type: Cargo ship. MMSI: 431100922.

Date/timePositionNaut miles runAvg speedWind from/ knotsBaromVisibWave heightAir tempDewpointWater temp
2016-Jul-22 22:21N 36°24' E 141°05'1515.2
2016-Jul-22 21:21N 36°09' E 141°02'1515.4
2016-Jul-22 20:23N 35°54' E 141°01'1414.8
2016-Jul-22 19:28N 35°40' E 141°00'1314.6
2016-Jul-22 18:33N 35°29' E 140°52'1715.9
2016-Jul-22 17:29N 35°16' E 140°39'1515.9
2016-Jul-22 16:31N 35°04' E 140°26'1515.3
2016-Jul-22 15:33N 34°56' E 140°11'1615.3
2016-Jul-22 14:31N 34°49' E 139°54'1414.9
2016-Jul-22 13:33N 34°60' E 139°42'1616.1
2016-Jul-22 12:33N 35°16' E 139°46'1312.5
2016-Jul-22 11:33N 35°28' E 139°48'1010.1
2016-Jul-22 10:34N 35°38' E 139°46'0 0.1
2016-Jul-22 09:31N 35°38' E 139°46'0 0.0
2016-Jul-22 08:28N 35°38' E 139°46'0 0.0
2016-Jul-22 07:28N 35°38' E 139°46'0 0.0
2016-Jul-22 04:31N 35°38' E 139°46'0 0.0
2016-Jul-22 03:31N 35°38' E 139°46'0 0.0
2016-Jul-22 02:28N 35°38' E 139°46'0 0.0
2016-Jul-22 01:31N 35°38' E 139°46'0 0.0
2016-Jul-22 00:31N 35°38' E 139°46'0 0.0
2016-Jul-21 23:28N 35°38' E 139°46'6 7.1
2016-Jul-21 22:33N 35°33' E 139°51'1414.0
2016-Jul-21 21:33N 35°20' E 139°44'1312.7
2016-Jul-21 20:33N 35°08' E 139°47'1515.3
2016-Jul-21 19:34N 34°52' E 139°46'1616.4
2016-Jul-21 18:33N 34°50' E 140°06'1615.9
2016-Jul-21 17:33N 35°01' E 140°20'1616.5
2016-Jul-21 16:33N 35°12' E 140°35'1615.9
2016-Jul-21 15:33N 35°26' E 140°45'1615.9
2016-Jul-21 14:33N 35°39' E 140°56'1916.5
2016-Jul-21 13:24N 35°57' E 141°02'  
2016-Jul-18 22:07N 36°47' E 141°07'1116.4
2016-Jul-18 21:26N 36°36' E 141°06'1516.8
2016-Jul-18 20:33N 36°21' E 141°05'1717.3
2016-Jul-18 19:33N 36°04' E 141°03'1717.4
2016-Jul-18 18:33N 35°46' E 141°01'1817.1
2016-Jul-18 17:32N 35°30' E 140°52'1818.8
2016-Jul-18 16:33N 35°16' E 140°38'1818.2
2016-Jul-18 15:33N 35°02' E 140°24'1717.4
2016-Jul-18 14:33N 34°53' E 140°06'1616.0
2016-Jul-18 13:33N 34°52' E 139°46'1717.0
2016-Jul-18 12:33N 35°09' E 139°45'1313.5
2016-Jul-18 11:34N 35°22' E 139°42'1413.6
2016-Jul-18 10:34N 35°32' E 139°53'0 0.0
2016-Jul-18 09:31N 35°32' E 139°53'0 0.1
2016-Jul-18 08:32N 35°32' E 139°53'8 8.4
2016-Jul-18 07:33N 35°38' E 139°46'0 0.4
2016-Jul-18 06:33N 35°38' E 139°46'0 0.0
2016-Jul-18 05:33N 35°38' E 139°46'0 0.0
2016-Jul-18 04:30N 35°38' E 139°46'0 0.0
2016-Jul-18 03:33N 35°38' E 139°46'0 0.0
2016-Jul-18 02:30N 35°38' E 139°46'0 0.0
2016-Jul-18 01:33N 35°38' E 139°46'0 0.0
2016-Jul-18 00:33N 35°38' E 139°46'0 0.0
2016-Jul-17 23:33N 35°38' E 139°46'6 5.6
2016-Jul-17 22:34N 35°34' E 139°50'1312.9
2016-Jul-17 21:33N 35°21' E 139°45'1211.9
2016-Jul-17 20:33N 35°09' E 139°46'1716.5
2016-Jul-17 19:33N 34°53' E 139°45'1615.9
2016-Jul-17 18:33N 34°54' E 140°04'1717.4
2016-Jul-17 17:33N 35°02' E 140°23'1817.3
2016-Jul-17 16:32N 35°16' E 140°37'1717.1
2016-Jul-17 15:33N 35°29' E 140°49'2017.9
2016-Jul-17 14:25N 35°47' E 141°01'1718.9
2016-Jul-17 13:32N 36°04' E 141°03'  
2016-Jul-14 22:13N 36°45' E 141°07'2017.6
2016-Jul-14 21:04N 36°25' E 141°05'917.6
2016-Jul-14 20:32N 36°15' E 141°04'1717.6
2016-Jul-14 19:33N 35°58' E 141°02'1717.3
2016-Jul-14 18:32N 35°41' E 140°57'1818.1
2016-Jul-14 17:33N 35°25' E 140°48'1918.8
2016-Jul-14 16:33N 35°11' E 140°33'1818.4
2016-Jul-14 15:33N 34°58' E 140°17'1818.1
2016-Jul-14 14:33N 34°50' E 139°57'1615.7
2016-Jul-14 13:33N 34°59' E 139°42'1716.7
2016-Jul-14 12:33N 35°16' E 139°46'1211.6
2016-Jul-14 11:33N 35°27' E 139°47'1110.7
2016-Jul-14 10:33N 35°38' E 139°46'0 0.1
2016-Jul-14 09:34N 35°38' E 139°46'0 0.0
2016-Jul-14 08:32N 35°38' E 139°46'0 0.0
2016-Jul-14 07:29N 35°38' E 139°46'0 0.0
2016-Jul-14 06:32N 35°38' E 139°46'0 0.0
2016-Jul-14 05:32N 35°38' E 139°46'0 0.0
2016-Jul-14 04:32N 35°38' E 139°46'0 0.0
2016-Jul-14 03:32N 35°38' E 139°46'0 0.0
2016-Jul-14 02:29N 35°38' E 139°46'0 0.0
2016-Jul-14 01:20N 35°38' E 139°46'0 0.0
2016-Jul-14 00:32N 35°38' E 139°46'0 0.0
2016-Jul-13 23:32N 35°38' E 139°46'2 2.1
2016-Jul-13 22:33N 35°36' E 139°47'1110.6
2016-Jul-13 21:34N 35°26' E 139°48'1111.1
2016-Jul-13 20:33N 35°15' E 139°47'1615.6
2016-Jul-13 19:33N 34°59' E 139°43'1414.1
2016-Jul-13 18:33N 34°51' E 139°56'1413.9
2016-Jul-13 17:33N 34°55' E 140°12'1514.7
2016-Jul-13 16:32N 35°03' E 140°27'1716.4
2016-Jul-13 15:31N 35°16' E 140°40'1616.4
2016-Jul-13 14:33N 35°29' E 140°52'1616.6
2016-Jul-13 13:33N 35°44' E 141°00'1817.3
2016-Jul-13 12:32N 36°02' E 141°03'  

Dump ship's entire track history